Time;durP1;ratioP1;P1;durP2;ratioP2;P2;SDS_P1;SDS_P2;PMS_P1;PMS_P2;Temp;Humidity;BMP_temperature;BMP_pressure;BME280_temperature;BME280_humidity;BME280_pressure;Samples;Min_cycle;Max_cycle;Signal;HPM_P1;HPM_P2
2024/04/12 00:01:16;;;;;;;5.88;2.13;;;;;;;6.01;100.00;100403.56;5394514;26;20005;-67
2024/04/12 00:03:43;;;;;;;4.72;2.78;;;;;;;6.00;100.00;100415.25;5402364;26;20015;-68
2024/04/12 00:06:16;;;;;;;10.15;2.85;;;;;;;6.04;100.00;100416.72;5399330;26;19996;-62
2024/04/12 00:08:48;;;;;;;4.15;2.80;;;;;;;6.04;100.00;100405.97;5398451;26;20455;-68
2024/04/12 00:11:18;;;;;;;3.63;2.10;;;;;;;6.03;100.00;100407.81;5400175;26;20006;-71
2024/04/12 00:13:52;;;;;;;5.03;2.35;;;;;;;5.88;100.00;100406.41;5391024;26;20011;-62
2024/04/12 00:16:25;;;;;;;5.68;1.80;;;;;;;5.84;100.00;100403.16;5416228;26;20010;-61
2024/04/12 00:19:07;;;;;;;4.40;2.15;;;;;;;5.88;100.00;100409.09;5394286;26;20349;-61
2024/04/12 00:21:37;;;;;;;8.07;2.30;;;;;;;5.76;100.00;100408.31;5400651;26;20042;-67
2024/04/12 00:24:06;;;;;;;5.47;2.20;;;;;;;5.89;100.00;100414.38;5402035;26;20025;-62
2024/04/12 00:26:34;;;;;;;4.72;2.30;;;;;;;5.78;100.00;100401.00;5406526;26;20430;-61
2024/04/12 00:29:01;;;;;;;6.63;2.20;;;;;;;5.69;100.00;100407.19;5401227;26;20000;-66
2024/04/12 00:31:26;;;;;;;6.35;2.30;;;;;;;5.66;100.00;100394.88;5409144;26;20359;-62
2024/04/12 00:33:55;;;;;;;5.88;2.47;;;;;;;5.65;100.00;100403.03;5391511;26;20001;-61
2024/04/12 00:36:24;;;;;;;5.00;2.30;;;;;;;5.63;100.00;100405.00;5404605;26;20006;-61
2024/04/12 00:38:55;;;;;;;5.15;2.28;;;;;;;5.56;100.00;100396.63;5396142;26;20000;-61
2024/04/12 00:41:22;;;;;;;8.25;2.63;;;;;;;5.60;100.00;100406.13;5401448;26;19999;-62
2024/04/12 00:43:51;;;;;;;3.20;2.03;;;;;;;5.48;100.00;100399.13;5395418;26;20010;-62
2024/04/12 00:46:23;;;;;;;12.18;2.65;;;;;;;5.45;100.00;100399.41;5407530;26;20018;-62
2024/04/12 00:48:52;;;;;;;9.45;2.50;;;;;;;5.52;100.00;100408.59;5401046;26;20004;-64
2024/04/12 00:51:21;;;;;;;7.55;2.05;;;;;;;5.49;100.00;100404.34;5401270;26;20436;-62
2024/04/12 00:53:55;;;;;;;7.80;2.25;;;;;;;5.43;100.00;100402.22;5401569;26;20003;-61
2024/04/12 00:56:22;;;;;;;5.40;2.03;;;;;;;5.37;100.00;100408.09;5407769;26;20332;-62
2024/04/12 00:58:50;;;;;;;5.60;2.63;;;;;;;5.35;100.00;100409.22;5401162;26;19996;-62
2024/04/12 01:01:15;;;;;;;3.55;2.13;;;;;;;5.37;100.00;100408.09;5406620;26;20008;-61
2024/04/12 01:03:47;;;;;;;4.10;2.38;;;;;;;5.36;100.00;100411.75;5406729;26;19995;-62
2024/04/12 01:06:16;;;;;;;4.20;2.22;;;;;;;5.32;100.00;100418.38;5408227;26;20013;-63
2024/04/12 01:08:46;;;;;;;7.32;2.20;;;;;;;5.29;100.00;100415.94;5398372;26;19996;-62
2024/04/12 01:11:13;;;;;;;9.63;2.33;;;;;;;5.36;100.00;100422.50;5402323;26;19996;-63
2024/04/12 01:13:40;;;;;;;6.93;3.08;;;;;;;5.26;100.00;100429.63;5406243;26;19995;-63
2024/04/12 01:16:06;;;;;;;3.30;2.53;;;;;;;5.21;100.00;100424.66;5395519;26;20002;-63
2024/04/12 01:18:32;;;;;;;6.22;2.50;;;;;;;5.17;100.00;100412.47;5400708;26;20003;-62
2024/04/12 01:21:10;;;;;;;5.53;2.45;;;;;;;5.19;100.00;100421.25;5422658;26;20007;-62
2024/04/12 01:23:43;;;;;;;12.13;2.60;;;;;;;5.20;100.00;100414.03;5401514;26;20057;-62
2024/04/12 01:26:12;;;;;;;4.20;2.17;;;;;;;5.15;100.00;100405.53;5381764;26;20012;-62
2024/04/12 01:28:41;;;;;;;3.00;2.05;;;;;;;5.04;100.00;100415.31;5398086;26;19999;-66
2024/04/12 01:31:06;;;;;;;3.50;1.77;;;;;;;4.97;100.00;100416.81;5402380;26;20089;-62
2024/04/12 01:33:36;;;;;;;4.90;2.10;;;;;;;4.87;100.00;100399.78;5397577;26;20440;-62
2024/04/12 01:36:05;;;;;;;4.53;2.00;;;;;;;4.98;100.00;100409.63;5401003;26;20005;-62
2024/04/12 01:38:37;;;;;;;9.63;2.10;;;;;;;5.09;100.00;100414.09;5394007;26;20017;-62
2024/04/12 01:41:08;;;;;;;6.95;2.03;;;;;;;5.05;100.00;100413.47;5391927;26;20234;-62
2024/04/12 01:43:38;;;;;;;5.00;1.67;;;;;;;5.05;100.00;100406.28;5410637;26;20008;-62
2024/04/12 01:46:09;;;;;;;8.82;2.30;;;;;;;5.03;100.00;100402.91;5409722;26;20000;-62
2024/04/12 01:48:36;;;;;;;6.32;1.85;;;;;;;5.04;100.00;100401.91;5396848;26;20014;-62
2024/04/12 01:51:03;;;;;;;7.28;2.17;;;;;;;4.97;100.00;100411.44;5410424;26;19999;-61
2024/04/12 01:53:40;;;;;;;6.13;2.20;;;;;;;5.03;100.00;100407.38;5407628;26;20041;-62
2024/04/12 01:56:09;;;;;;;4.28;2.25;;;;;;;4.96;100.00;100408.91;5401343;26;20011;-62
2024/04/12 01:58:37;;;;;;;5.10;2.70;;;;;;;4.88;100.00;100406.84;5389292;26;20058;-62
2024/04/12 02:01:02;;;;;;;4.25;1.85;;;;;;;4.86;100.00;100407.97;5404241;26;20004;-61
2024/04/12 02:03:30;;;;;;;5.30;2.13;;;;;;;4.83;100.00;100401.03;5386529;26;20011;-61
2024/04/12 02:05:56;;;;;;;6.85;2.30;;;;;;;4.73;100.00;100413.47;5403384;26;19995;-61
2024/04/12 02:08:23;;;;;;;4.80;2.70;;;;;;;4.70;100.00;100411.06;5408673;26;20013;-61
2024/04/12 02:10:50;;;;;;;4.45;2.95;;;;;;;4.60;100.00;100409.13;5401403;26;20348;-62
2024/04/12 02:13:19;;;;;;;6.43;3.10;;;;;;;4.53;100.00;100402.56;5405163;26;20239;-61
2024/04/12 02:15:49;;;;;;;4.05;2.75;;;;;;;4.55;100.00;100408.63;5399874;26;19995;-61
2024/04/12 02:18:19;;;;;;;4.50;2.70;;;;;;;4.54;100.00;100415.00;5379666;26;20408;-62
2024/04/12 02:20:46;;;;;;;5.38;2.90;;;;;;;4.55;100.00;100411.31;5402753;26;20000;-62
2024/04/12 02:23:13;;;;;;;4.72;2.90;;;;;;;4.59;100.00;100420.81;5389559;26;20355;-61
2024/04/12 02:25:41;;;;;;;6.28;2.30;;;;;;;4.57;100.00;100411.22;5404958;26;20094;-62
2024/04/12 02:28:09;;;;;;;4.90;2.50;;;;;;;4.51;100.00;100409.03;5409194;26;20010;-63
2024/04/12 02:30:44;;;;;;;5.03;2.67;;;;;;;4.47;100.00;100419.13;5407425;26;20056;-60
2024/04/12 02:33:09;;;;;;;8.02;2.78;;;;;;;4.47;100.00;100407.56;5391015;26;20011;-61
2024/04/12 02:35:41;;;;;;;4.72;2.30;;;;;;;4.59;100.00;100419.97;5405409;26;20095;-61
2024/04/12 02:38:16;;;;;;;4.13;2.45;;;;;;;4.45;100.00;100409.53;5392833;26;20011;-61
2024/04/12 02:40:46;;;;;;;4.07;2.25;;;;;;;4.50;100.00;100412.69;5403315;26;20003;-61
2024/04/12 02:43:15;;;;;;;6.97;2.70;;;;;;;4.59;100.00;100414.63;5394533;26;20011;-61
2024/04/12 02:45:57;;;;;;;4.60;2.83;;;;;;;4.47;100.00;100418.28;5399144;26;19996;-61
2024/04/12 02:48:23;;;;;;;9.10;2.50;;;;;;;4.47;100.00;100408.41;5392207;26;20032;-61
2024/04/12 02:50:56;;;;;;;8.82;2.38;;;;;;;4.43;100.00;100417.69;5399983;26;20000;-62
2024/04/12 02:53:24;;;;;;;6.97;2.95;;;;;;;4.52;100.00;100421.44;5407346;26;20080;-60
2024/04/12 02:56:25;;;;;;;5.75;2.50;;;;;;;4.49;100.00;100425.22;5395340;26;20347;-61
2024/04/12 02:58:54;;;;;;;3.60;2.20;;;;;;;4.42;100.00;100424.00;5347513;26;20468;-62
2024/04/12 03:01:21;;;;;;;3.70;2.30;;;;;;;4.41;100.00;100418.81;5398007;26;20379;-62
2024/04/12 03:03:54;;;;;;;4.47;2.30;;;;;;;4.41;100.00;100426.84;5403643;26;20011;-61
2024/04/12 03:06:25;;;;;;;6.43;2.22;;;;;;;4.43;100.00;100427.53;5397790;26;20420;-62
2024/04/12 03:08:53;;;;;;;4.15;2.38;;;;;;;4.35;100.00;100428.19;5405716;26;19996;-62
2024/04/12 03:11:21;;;;;;;7.13;2.33;;;;;;;4.18;100.00;100425.00;5413008;26;19998;-62
2024/04/12 03:14:18;;;;;;;4.57;2.88;;;;;;;4.17;100.00;100425.16;5402781;26;20709;-62
2024/04/12 03:16:46;;;;;;;4.15;2.60;;;;;;;4.29;100.00;100416.13;5388769;26;20012;-62
2024/04/12 03:19:14;;;;;;;3.92;2.20;;;;;;;4.28;100.00;100416.25;5396205;26;19996;-61
2024/04/12 03:21:42;;;;;;;6.13;2.28;;;;;;;4.28;100.00;100424.28;5401391;26;20011;-62
2024/04/12 03:24:09;;;;;;;4.15;1.95;;;;;;;4.20;100.00;100416.03;5425971;26;20075;-62
2024/04/12 03:26:35;;;;;;;4.00;2.08;;;;;;;4.17;100.00;100427.84;5396224;26;20037;-62
2024/04/12 03:29:05;;;;;;;6.85;2.35;;;;;;;4.07;100.00;100432.22;5399228;26;19992;-64
2024/04/12 03:31:33;;;;;;;5.20;2.25;;;;;;;4.02;100.00;100429.03;5404101;26;20084;-61
2024/04/12 03:34:00;;;;;;;8.25;3.58;;;;;;;4.07;100.00;100433.06;5399441;26;20012;-62
2024/04/12 03:36:27;;;;;;;7.75;2.53;;;;;;;4.02;100.00;100437.94;5398984;26;19999;-61
2024/04/12 03:41:58;;;;;;;4.95;2.42;;;;;;;4.00;100.00;100442.53;5405053;26;20073;-62
2024/04/12 03:44:31;;;;;;;5.20;2.38;;;;;;;3.98;100.00;100444.47;5400163;26;20008;-61
2024/04/12 03:46:59;;;;;;;5.47;2.10;;;;;;;3.94;100.00;100448.38;5390563;26;20449;-61
2024/04/12 03:49:28;;;;;;;9.30;2.80;;;;;;;3.94;100.00;100449.25;5388700;26;20472;-61
2024/04/12 03:51:55;;;;;;;4.55;2.45;;;;;;;3.86;100.00;100456.19;5394448;26;19999;-61
2024/04/12 03:54:22;;;;;;;6.25;2.55;;;;;;;3.84;100.00;100448.25;5393171;26;20385;-61
2024/04/12 03:56:49;;;;;;;4.45;2.80;;;;;;;3.85;100.00;100459.81;5391200;26;19996;-61
2024/04/12 03:59:19;;;;;;;5.18;3.10;;;;;;;3.87;100.00;100452.50;5387212;26;20008;-61
2024/04/12 04:01:45;;;;;;;4.75;2.72;;;;;;;3.85;100.00;100449.97;5405427;26;20003;-61
2024/04/12 04:04:18;;;;;;;5.78;2.60;;;;;;;3.84;100.00;100455.44;5378750;26;20008;-60
2024/04/12 04:06:49;;;;;;;5.30;2.90;;;;;;;3.67;100.00;100444.22;5383635;26;20010;-60
2024/04/12 04:09:19;;;;;;;6.03;2.97;;;;;;;3.61;100.00;100451.84;5390219;26;20425;-61
2024/04/12 04:11:48;;;;;;;5.18;2.80;;;;;;;3.52;100.00;100453.44;5387748;26;20397;-61
2024/04/12 04:14:16;;;;;;;6.07;2.45;;;;;;;3.58;100.00;100450.28;5396061;26;20022;-60
2024/04/12 04:16:42;;;;;;;8.63;2.87;;;;;;;3.70;100.00;100448.47;5383690;26;20330;-60
2024/04/12 04:19:12;;;;;;;5.47;3.10;;;;;;;3.74;100.00;100447.25;5395664;26;20014;-60
2024/04/12 04:21:41;;;;;;;7.13;3.03;;;;;;;3.74;100.00;100441.91;5412108;26;20009;-60
2024/04/12 04:24:09;;;;;;;;;;;;;;;3.75;100.00;100443.63;5405328;26;20030;-60
2024/04/12 04:26:36;;;;;;;6.53;3.22;;;;;;;3.75;100.00;100448.97;5401123;26;19969;-61
2024/04/12 04:29:02;;;;;;;6.78;3.35;;;;;;;3.83;100.00;100437.69;5395657;26;19995;-60
2024/04/12 04:31:46;;;;;;;5.80;3.05;;;;;;;3.76;100.00;100436.44;5413607;26;20438;-60
2024/04/12 04:34:13;;;;;;;6.97;2.97;;;;;;;3.80;100.00;100446.81;5401363;26;20017;-61
2024/04/12 04:36:42;;;;;;;8.52;2.70;;;;;;;3.74;100.00;100418.66;5395889;26;20043;-61
2024/04/12 04:39:08;;;;;;;5.15;2.72;;;;;;;3.86;100.00;100429.41;5388553;26;20442;-61
2024/04/12 04:41:33;;;;;;;3.97;2.58;;;;;;;3.89;100.00;100429.16;5389243;26;20062;-60
2024/04/12 04:43:59;;;;;;;5.57;3.33;;;;;;;3.93;100.00;100428.81;5388836;26;20035;-60
2024/04/12 04:46:26;;;;;;;7.70;2.63;;;;;;;4.12;100.00;100432.69;5389403;26;20016;-60
2024/04/12 04:48:55;;;;;;;7.53;2.70;;;;;;;4.15;100.00;100425.25;5384696;26;20023;-61
2024/04/12 04:51:22;;;;;;;5.53;2.85;;;;;;;4.30;100.00;100423.19;5398457;26;20015;-61
2024/04/12 04:53:52;;;;;;;5.30;2.40;;;;;;;4.34;100.00;100421.09;5402360;26;20014;-60
2024/04/12 04:56:30;;;;;;;7.38;2.45;;;;;;;4.39;100.00;100418.91;5396945;26;20007;-60
2024/04/12 04:58:56;;;;;;;4.38;2.40;;;;;;;4.48;100.00;100404.78;5386675;26;19995;-63
2024/04/12 05:01:25;;;;;;;4.45;2.30;;;;;;;4.57;100.00;100417.41;5390842;26;20075;-61
2024/04/12 05:03:52;;;;;;;3.47;2.20;;;;;;;4.83;100.00;100417.97;5394194;26;20011;-60
2024/04/12 05:06:29;;;;;;;3.67;2.28;;;;;;;4.96;100.00;100422.31;5398906;26;20072;-60
2024/04/12 05:08:56;;;;;;;5.13;2.17;;;;;;;4.87;100.00;100415.88;5389606;26;20028;-60
2024/04/12 05:11:24;;;;;;;4.75;2.15;;;;;;;4.83;100.00;100422.47;5392049;26;20014;-60
2024/04/12 05:13:55;;;;;;;3.72;2.22;;;;;;;4.89;100.00;100421.97;5393326;26;20006;-60
2024/04/12 05:16:21;;;;;;;5.45;2.38;;;;;;;4.96;100.00;100404.38;5394535;26;20096;-60
2024/04/12 05:18:48;;;;;;;4.18;2.45;;;;;;;5.12;100.00;100420.03;5395214;26;20019;-60
2024/04/12 05:21:16;;;;;;;4.40;2.35;;;;;;;5.15;100.00;100408.22;5398021;26;20128;-60
2024/04/12 05:23:42;;;;;;;4.38;2.13;;;;;;;5.33;100.00;100419.22;5396476;26;20333;-60
2024/04/12 05:26:09;;;;;;;6.47;2.65;;;;;;;5.43;100.00;100421.00;5392641;26;19996;-60
2024/04/12 05:28:37;;;;;;;5.15;2.25;;;;;;;5.54;100.00;100412.03;5401717;26;20093;-60
2024/04/12 05:31:02;;;;;;;3.97;2.47;;;;;;;5.75;100.00;100425.44;5399272;26;20092;-60
2024/04/12 05:33:32;;;;;;;6.97;2.50;;;;;;;5.87;100.00;100426.22;5408215;26;20053;-63
2024/04/12 05:35:58;;;;;;;5.22;2.30;;;;;;;6.03;100.00;100423.09;5381262;26;20126;-60
2024/04/12 05:38:24;;;;;;;7.20;2.50;;;;;;;6.23;100.00;100406.03;5415504;26;20428;-60
2024/04/12 05:40:52;;;;;;;10.90;2.70;;;;;;;6.66;100.00;100414.81;5399499;26;20000;-60
2024/04/12 05:43:21;;;;;;;9.95;2.40;;;;;;;7.78;100.00;100393.63;5397311;26;20008;-61
2024/04/12 05:45:49;;;;;;;6.40;2.20;;;;;;;9.92;100.00;100384.00;5398757;26;19999;-65
2024/04/12 05:48:21;;;;;;;11.80;2.55;;;;;;;11.61;100.00;100381.06;5386885;26;20014;-60
2024/04/12 05:50:48;;;;;;;4.05;1.88;;;;;;;11.24;100.00;100384.28;5387502;26;20364;-60
2024/04/12 05:53:15;;;;;;;12.38;2.20;;;;;;;10.60;100.00;100389.41;5392203;26;20496;-61
2024/04/12 05:55:44;;;;;;;3.42;1.80;;;;;;;9.88;100.00;100389.75;5401484;26;20104;-60
2024/04/12 05:58:17;;;;;;;3.38;1.88;;;;;;;9.42;100.00;100393.66;5393439;26;20472;-60
2024/04/12 06:00:43;;;;;;;5.00;2.33;;;;;;;9.78;100.00;100388.16;5401222;26;19999;-60
2024/04/12 06:03:14;;;;;;;4.10;2.17;;;;;;;10.62;100.00;100400.94;5408702;26;19999;-61
2024/04/12 06:05:46;;;;;;;5.47;2.65;;;;;;;11.38;100.00;100409.84;5397637;26;20013;-61
2024/04/12 06:08:12;;;;;;;5.00;2.40;;;;;;;12.07;100.00;100411.13;5399987;26;20338;-61
2024/04/12 06:10:38;;;;;;;7.25;2.90;;;;;;;13.67;100.00;100406.16;5400819;26;20011;-61
2024/04/12 06:13:06;;;;;;;3.22;2.20;;;;;;;14.83;100.00;100403.84;5392862;26;20012;-61
2024/04/12 06:15:36;;;;;;;6.15;1.92;;;;;;;14.98;100.00;100410.09;5397616;26;20018;-61
2024/04/12 06:18:05;;;;;;;3.97;2.00;;;;;;;16.32;94.64;100407.47;5397879;26;20012;-61
2024/04/12 06:20:33;;;;;;;7.43;2.33;;;;;;;16.49;84.28;100407.13;5408875;26;20292;-61
2024/04/12 06:22:59;;;;;;;4.38;2.13;;;;;;;17.04;78.37;100410.75;5403490;26;20524;-61
2024/04/12 06:25:25;;;;;;;10.68;2.22;;;;;;;18.13;71.93;100415.88;5415907;26;20011;-61
2024/04/12 06:27:52;;;;;;;4.88;1.70;;;;;;;18.08;70.62;100415.69;5383527;26;20073;-61
2024/04/12 06:30:24;;;;;;;4.97;1.85;;;;;;;19.93;63.24;100413.03;5405222;26;19995;-61
2024/04/12 06:32:50;;;;;;;6.07;1.58;;;;;;;21.43;59.56;100408.97;5409011;26;20072;-62
2024/04/12 06:35:20;;;;;;;5.70;2.10;;;;;;;21.22;57.57;100418.56;5394130;26;19999;-61
2024/04/12 06:37:47;;;;;;;4.35;1.90;;;;;;;21.86;56.93;100418.00;5388316;26;20412;-61
2024/04/12 06:40:15;;;;;;;8.10;1.98;;;;;;;22.39;54.84;100430.84;5399856;26;19995;-62
2024/04/12 06:42:42;;;;;;;5.43;2.38;;;;;;;24.32;51.03;100418.16;5393454;26;20000;-62
2024/04/12 06:45:15;;;;;;;3.75;1.77;;;;;;;24.95;48.12;100415.97;5396063;26;20004;-62
2024/04/12 06:47:41;;;;;;;5.25;1.83;;;;;;;24.89;48.04;100415.06;5395227;26;20436;-62
2024/04/12 06:50:08;;;;;;;6.43;1.83;;;;;;;24.28;47.87;100412.28;5399644;26;19995;-61
2024/04/12 06:52:35;;;;;;;8.60;2.05;;;;;;;22.18;51.78;100407.47;5403947;26;20006;-59
2024/04/12 06:55:01;;;;;;;4.72;1.70;;;;;;;22.37;52.83;100413.69;5400150;26;20026;-60
2024/04/12 06:57:27;;;;;;;7.30;2.25;;;;;;;22.77;53.40;100410.16;5395841;26;20436;-60
2024/04/12 06:59:53;;;;;;;13.23;2.55;;;;;;;23.25;52.59;100405.31;5395940;26;20014;-60
2024/04/12 07:02:25;;;;;;;8.45;2.25;;;;;;;23.19;51.01;100371.25;5402151;26;19995;-60
2024/04/12 07:04:54;;;;;;;10.27;1.90;;;;;;;24.81;49.83;100395.28;5374350;26;20012;-60
2024/04/12 07:07:23;;;;;;;10.90;1.90;;;;;;;24.83;49.20;100410.53;5392949;26;20044;-60
2024/04/12 07:09:59;;;;;;;7.20;1.58;;;;;;;25.74;48.53;100393.22;5391677;26;20000;-60
2024/04/12 07:12:27;;;;;;;7.97;1.90;;;;;;;26.62;46.67;100397.44;5395425;26;20007;-62
2024/04/12 07:14:54;;;;;;;8.50;1.67;;;;;;;26.37;45.26;100398.09;5396685;26;20014;-61
2024/04/12 07:17:20;;;;;;;8.00;1.83;;;;;;;27.01;44.45;100392.31;5402346;26;20019;-60
2024/04/12 07:19:57;;;;;;;13.23;2.38;;;;;;;28.84;42.49;100396.06;5397443;26;19997;-61
2024/04/12 07:22:26;;;;;;;8.38;1.60;;;;;;;28.70;40.99;100391.41;5393146;26;20006;-60
2024/04/12 07:24:52;;;;;;;4.85;1.85;;;;;;;28.36;42.23;100409.59;5405893;26;19995;-61
2024/04/12 07:27:22;;;;;;;5.57;1.60;;;;;;;29.24;40.61;100410.13;5391938;26;20012;-61
2024/04/12 07:29:49;;;;;;;9.05;2.45;;;;;;;29.45;40.42;100410.81;5404026;26;20000;-62
2024/04/12 07:32:16;;;;;;;7.30;1.85;;;;;;;29.45;40.24;100420.00;5404107;26;20004;-61
2024/04/12 07:34:51;;;;;;;7.35;2.00;;;;;;;29.96;39.14;100401.19;5410494;26;20339;-61
2024/04/12 07:37:27;;;;;;;11.70;2.03;;;;;;;31.66;37.26;100407.19;5397113;26;19995;-64
2024/04/12 07:40:18;;;;;;;6.43;2.20;;;;;;;31.40;36.83;100403.97;5402027;26;20011;-61
2024/04/12 07:42:47;;;;;;;10.93;2.10;;;;;;;29.90;37.24;100404.03;5405869;26;20309;-65
2024/04/12 07:45:16;;;;;;;7.38;2.33;;;;;;;30.81;37.20;100397.75;5401168;26;20057;-61
2024/04/12 07:47:52;;;;;;;12.18;2.30;;;;;;;30.43;37.77;100392.06;5385065;26;19995;-62
2024/04/12 07:50:28;;;;;;;8.68;2.47;;;;;;;29.09;39.40;100399.88;5395055;26;20011;-62
2024/04/12 07:52:58;;;;;;;5.82;2.13;;;;;;;29.11;38.58;100388.44;5392317;26;19991;-61
2024/04/12 07:55:26;;;;;;;10.07;2.78;;;;;;;28.80;39.47;100386.63;5395156;26;20206;-61
2024/04/12 07:57:55;;;;;;;9.95;2.45;;;;;;;28.33;40.83;100387.88;5387814;26;19995;-63
2024/04/12 08:00:35;;;;;;;8.25;2.17;;;;;;;29.71;38.74;100380.75;5395300;26;20007;-65
2024/04/12 08:03:06;;;;;;;7.57;2.53;;;;;;;30.10;38.43;100380.69;5401272;26;20003;-64
2024/04/12 08:05:59;;;;;;;13.75;2.20;;;;;;;29.88;37.62;100380.34;5396188;26;20008;-65
2024/04/12 08:08:27;;;;;;;9.63;2.67;;;;;;;30.84;37.82;100379.56;5394199;26;20016;-66
2024/04/12 08:10:56;;;;;;;8.57;2.60;;;;;;;31.26;36.94;100373.09;5385233;26;19995;-65
2024/04/12 08:13:28;;;;;;;6.85;2.50;;;;;;;30.70;36.51;100366.31;5393798;26;19996;-65
2024/04/12 08:16:00;;;;;;;8.50;2.47;;;;;;;30.85;37.72;100375.66;5385195;26;19992;-66
2024/04/12 08:18:28;;;;;;;6.07;2.40;;;;;;;31.81;36.04;100364.94;5406688;26;20000;-66
2024/04/12 08:21:01;;;;;;;9.52;2.65;;;;;;;31.08;36.12;100369.19;5398638;26;20059;-65
2024/04/12 08:23:29;;;;;;;6.55;2.60;;;;;;;29.55;37.76;100363.28;5395321;26;21340;-65
2024/04/12 08:25:58;;;;;;;7.05;2.38;;;;;;;30.49;37.72;100368.53;5396205;26;20323;-65
2024/04/12 08:28:24;;;;;;;8.85;2.58;;;;;;;32.88;35.67;100364.81;5403175;26;20031;-65
2024/04/12 08:30:51;;;;;;;8.35;2.60;;;;;;;33.86;34.59;100359.69;5415372;26;20308;-65
2024/04/12 08:33:24;;;;;;;6.87;2.10;;;;;;;34.77;34.37;100363.88;5401631;26;20484;-66
2024/04/12 08:35:55;;;;;;;5.85;2.38;;;;;;;34.28;33.13;100366.69;5398303;26;20010;-65
2024/04/12 08:38:22;;;;;;;6.78;2.50;;;;;;;32.83;34.78;100367.75;5391667;26;20152;-65
2024/04/12 08:40:52;;;;;;;6.20;2.70;;;;;;;33.51;34.80;100371.50;5395741;26;19996;-65
2024/04/12 08:43:19;;;;;;;8.98;2.50;;;;;;;33.75;33.95;100379.63;5399822;26;20091;-65
2024/04/12 08:45:48;;;;;;;7.10;2.70;;;;;;;34.23;33.14;100373.28;5399279;26;20000;-65
2024/04/12 08:48:16;;;;;;;6.75;2.70;;;;;;;32.43;34.42;100375.81;5394467;26;19996;-65
2024/04/12 08:50:42;;;;;;;;;;;;;;;33.03;32.86;100377.69;5400920;26;20458;-65
2024/04/12 08:53:14;;;;;;;7.10;2.55;;;;;;;34.26;31.88;100363.38;5394950;26;19925;-65
2024/04/12 08:55:44;;;;;;;8.45;3.03;;;;;;;33.46;32.26;100373.56;5401043;26;19992;-66
2024/04/12 08:58:10;;;;;;;9.40;3.33;;;;;;;34.39;31.90;100372.84;5396509;26;20011;-65
2024/04/12 09:00:38;;;;;;;6.57;2.95;;;;;;;33.06;32.45;100370.59;5392625;26;20309;-65
2024/04/12 09:03:10;;;;;;;5.88;2.97;;;;;;;34.78;30.80;100372.00;5389664;26;20440;-62
2024/04/12 09:05:38;;;;;;;6.53;2.78;;;;;;;34.29;31.74;100364.72;5400000;26;19992;-62
2024/04/12 09:08:05;;;;;;;8.48;3.58;;;;;;;31.91;33.12;100375.09;5403917;26;19995;-62
2024/04/12 09:10:35;;;;;;;6.95;3.08;;;;;;;33.02;32.09;100378.84;5401847;26;20018;-62
2024/04/12 09:13:08;;;;;;;5.80;3.38;;;;;;;34.45;30.92;100366.78;5401965;26;20003;-62
2024/04/12 09:15:35;;;;;;;10.15;3.45;;;;;;;33.22;31.91;100371.91;5395663;26;20019;-62
2024/04/12 09:18:01;;;;;;;8.18;3.33;;;;;;;33.90;32.91;100369.13;5390772;26;20015;-62
2024/04/12 09:20:34;;;;;;;7.95;3.58;;;;;;;35.08;31.13;100373.09;5394833;26;20469;-62
2024/04/12 09:23:19;;;;;;;8.35;3.55;;;;;;;35.61;30.10;100373.06;5396014;26;20447;-62
2024/04/12 09:25:54;;;;;;;7.35;2.90;;;;;;;34.83;31.68;100371.03;5404897;26;20071;-62
2024/04/12 09:28:37;;;;;;;4.65;2.80;;;;;;;35.66;30.89;100370.06;5399617;26;19999;-62
2024/04/12 09:34:22;;;;;;;6.60;2.65;;;;;;;35.38;30.70;100361.16;5382770;26;20072;-62
2024/04/12 09:42:14;;;;;;;7.13;2.63;;;;;;;35.16;31.25;100374.22;5393290;26;20007;-63
2024/04/12 09:44:59;;;;;;;6.60;2.80;;;;;;;35.78;30.81;100373.88;5391038;26;20289;-63
2024/04/12 10:37:28;;;;;;;11.38;3.20;;;;;;;34.60;30.85;100317.72;5394838;26;20010;-62
2024/04/12 10:39:55;;;;;;;5.07;3.08;;;;;;;33.40;31.47;100319.56;5395583;26;19992;-62
2024/04/12 10:42:25;;;;;;;8.32;3.10;;;;;;;34.83;31.21;100317.59;5388895;26;20065;-62
2024/04/12 10:44:56;;;;;;;10.82;3.13;;;;;;;34.01;31.51;100300.31;5398626;26;20000;-62
2024/04/12 10:47:28;;;;;;;7.18;3.63;;;;;;;33.38;31.78;100303.06;5388058;26;20019;-62
2024/04/12 10:49:56;;;;;;;8.85;3.83;;;;;;;34.13;29.42;100313.75;5397935;26;20072;-63
2024/04/12 10:52:31;;;;;;;9.93;3.95;;;;;;;32.71;30.39;100319.78;5401770;26;20000;-63
2024/04/12 10:55:09;;;;;;;10.00;3.38;;;;;;;32.89;31.00;100315.19;5406765;26;20072;-64
2024/04/12 10:57:41;;;;;;;8.18;3.45;;;;;;;31.28;31.92;100311.25;5405755;26;20000;-63
2024/04/12 11:00:17;;;;;;;6.20;3.00;;;;;;;30.77;32.75;100302.50;5388418;26;20000;-64
2024/04/12 11:02:54;;;;;;;7.68;3.13;;;;;;;31.71;32.78;100309.16;5400953;26;20038;-64
2024/04/12 11:07:53;;;;;;;6.38;2.85;;;;;;;33.39;31.73;100290.69;5394170;26;20027;-63
2024/04/12 11:10:24;;;;;;;6.32;3.15;;;;;;;34.02;30.50;100287.91;5402214;26;20039;-64
2024/04/12 11:13:01;;;;;;;6.07;2.90;;;;;;;33.66;30.73;100286.09;5402757;26;20344;-64
2024/04/12 11:32:12;;;;;;;5.78;3.10;;;;;;;37.81;27.70;100251.69;5389494;26;20074;-65
2024/04/12 11:34:40;;;;;;;10.25;3.28;;;;;;;38.61;27.14;100255.94;5406928;26;20007;-65
2024/04/12 11:37:06;;;;;;;5.95;2.70;;;;;;;38.02;27.07;100255.28;5404477;26;20010;-64
2024/04/12 11:39:37;;;;;;;5.70;2.45;;;;;;;40.55;26.27;100253.50;5406974;26;20012;-63
2024/04/12 11:42:03;;;;;;;7.35;2.97;;;;;;;37.71;27.57;100256.66;5397627;26;20017;-62
2024/04/12 11:44:30;;;;;;;6.63;2.75;;;;;;;39.09;26.32;100245.66;5402904;26;20064;-64
2024/04/12 11:47:02;;;;;;;6.40;3.03;;;;;;;37.42;26.55;100248.34;5407404;26;20006;-62
2024/04/12 11:49:41;;;;;;;6.38;2.42;;;;;;;37.99;28.62;100255.16;5394037;26;20077;-63
2024/04/12 11:52:15;;;;;;;7.00;3.05;;;;;;;38.24;27.63;100253.16;5391692;26;20000;-63
2024/04/12 11:54:42;;;;;;;6.40;3.30;;;;;;;38.91;27.94;100256.47;5374313;26;20439;-64
2024/04/12 11:57:11;;;;;;;7.72;2.80;;;;;;;38.96;27.25;100247.72;5402756;26;20075;-63
2024/04/12 11:59:37;;;;;;;5.93;3.10;;;;;;;38.35;27.67;100237.34;5384235;26;20008;-63
2024/04/12 12:02:04;;;;;;;11.43;3.00;;;;;;;39.51;27.81;100237.56;5400815;26;20337;-63
2024/04/12 12:04:30;;;;;;;6.60;2.40;;;;;;;39.88;27.77;100235.31;5397099;26;20010;-68
2024/04/12 12:06:59;;;;;;;6.43;2.95;;;;;;;39.42;27.10;100220.72;5391114;26;20012;-65
2024/04/12 12:09:31;;;;;;;6.72;3.13;;;;;;;40.53;26.92;100217.81;5399507;26;20423;-66
2024/04/12 12:12:00;;;;;;;8.70;2.85;;;;;;;40.44;27.03;100216.38;5396836;26;20000;-66
2024/04/12 12:14:27;;;;;;;9.50;3.78;;;;;;;39.88;27.88;100220.31;5390322;26;20014;-65
2024/04/12 12:16:53;;;;;;;7.13;2.47;;;;;;;41.41;26.66;100224.09;5392565;26;19996;-65
2024/04/12 12:19:19;;;;;;;5.55;3.00;;;;;;;40.56;26.49;100215.41;5395774;26;20000;-66
2024/04/12 12:21:45;;;;;;;8.90;3.45;;;;;;;39.29;25.78;100210.66;5398368;26;20011;-65
2024/04/12 12:24:11;;;;;;;6.97;2.55;;;;;;;40.19;27.04;100219.44;5398391;26;20021;-66
2024/04/12 12:26:37;;;;;;;7.32;3.33;;;;;;;40.17;26.52;100216.16;5400747;26;20092;-65
2024/04/12 12:29:06;;;;;;;7.30;2.65;;;;;;;40.76;27.10;100210.63;5392044;26;20013;-65
2024/04/12 12:31:32;;;;;;;5.78;3.05;;;;;;;39.44;26.63;100214.72;5394573;26;20003;-65
2024/04/12 12:33:57;;;;;;;5.43;3.03;;;;;;;40.15;26.64;100218.53;5399444;26;20447;-66
2024/04/12 12:36:23;;;;;;;9.57;3.33;;;;;;;39.73;26.40;100218.28;5395004;26;19995;-66
2024/04/12 12:38:49;;;;;;;7.75;3.38;;;;;;;39.58;26.61;100214.25;5408921;26;20003;-67
2024/04/12 12:41:15;;;;;;;6.72;3.17;;;;;;;39.90;26.98;100217.94;5399773;26;20102;-64
2024/04/12 12:43:44;;;;;;;7.65;3.40;;;;;;;40.11;26.54;100220.44;5396110;26;19997;-65
2024/04/12 12:46:13;;;;;;;5.88;2.63;;;;;;;39.43;27.92;100211.06;5393560;26;20068;-65
2024/04/12 12:48:39;;;;;;;6.90;2.70;;;;;;;39.16;27.15;100206.25;5396927;26;20011;-64
2024/04/12 12:51:09;;;;;;;7.55;2.40;;;;;;;39.24;27.19;100203.22;5398468;26;20024;-64
2024/04/12 12:53:36;;;;;;;5.65;2.78;;;;;;;39.57;26.63;100202.13;5399041;26;20049;-64
2024/04/12 12:56:02;;;;;;;6.47;2.65;;;;;;;38.98;27.31;100200.06;5377529;26;20000;-65